Eastmain, Canada
Current Conditions -  °F | °C
As of 11:00 AM on Wednesday 22 Oct 2014 (Local Time) from CYGL Reporting Station
Scattered Clouds Scattered Clouds  
Wind Chill: 30°   Ceiling: Unl
Heat Index: 37°   Visibility: 15mi
Dew Point: 30°   Wind: 12mph
Humidity: 75%   Direction: 200°SSW
Pressure: 30.35"   Gusts: 23mph
Location:  52.23°N, 78.52°W
Report Text: CYGL 221500Z 20010G20KT 15SM FEW010 FEW070 SCT280 03/M01 A3035 RMK SC1AC1CC4 SC TR AC TR SLP290
Loading
Personal Weather Stations






























Interactive Weather Map
Tropical Storm Tracking
New forecast layout! Learn more

10-Day Weather Forecast

Advertisements
Track Severe Weather on mobile